Time;durP1;ratioP1;P1;durP2;ratioP2;P2;SDS_P1;SDS_P2;PMS_P1;PMS_P2;Temp;Humidity;BMP_temperature;BMP_pressure;BME280_temperature;BME280_humidity;BME280_pressure;Samples;Min_cycle;Max_cycle;Signal;HPM_P1;HPM_P2
2024/01/02 00:00:51;;;;;;;4.68;3.40;;;;;;;-9.30;56.80;95581.44;6270551;28;20063;-69
2024/01/02 00:03:57;;;;;;;7.78;3.92;;;;;;;-9.46;56.96;95600.22;6271128;28;20037;-67
2024/01/02 00:07:02;;;;;;;6.10;4.05;;;;;;;-9.56;57.40;95620.69;6270066;28;20056;-66
2024/01/02 00:10:04;;;;;;;4.40;2.72;;;;;;;-9.59;56.36;95615.59;6270236;28;20060;-67
2024/01/02 00:13:09;;;;;;;7.78;3.92;;;;;;;-9.79;56.24;95594.53;6269793;28;20102;-67
2024/01/02 00:16:11;;;;;;;5.70;2.90;;;;;;;-9.83;55.56;95580.13;6270113;28;20053;-66
2024/01/02 00:19:14;;;;;;;5.93;4.03;;;;;;;-10.05;55.81;95613.31;6269293;28;20160;-68
2024/01/02 00:22:15;;;;;;;6.13;3.80;;;;;;;-10.09;55.78;95660.00;6269293;28;20187;-67
2024/01/02 00:25:19;;;;;;;;;;;;;;;-10.27;56.58;95680.47;6270848;28;20132;-65
2024/01/02 00:28:20;;;;;;;5.80;3.50;;;;;;;-10.44;56.69;95678.81;6269880;28;20333;-67
2024/01/02 00:31:21;;;;;;;5.15;3.65;;;;;;;-10.45;57.23;95666.94;6269429;28;20045;-67
2024/01/02 00:34:23;;;;;;;4.85;3.42;;;;;;;-10.33;56.81;95655.03;6269295;28;20718;-68
2024/01/02 00:37:24;;;;;;;5.38;3.30;;;;;;;-10.44;56.79;95658.47;6269514;28;20554;-68
2024/01/02 00:40:28;;;;;;;7.65;4.15;;;;;;;-10.37;56.22;95668.63;6269682;28;20415;-67
2024/01/02 00:43:30;;;;;;;5.28;3.55;;;;;;;-10.25;55.49;95704.97;6269589;28;20056;-67
2024/01/02 00:46:34;;;;;;;5.22;2.72;;;;;;;-10.34;55.49;95727.09;6252789;28;20052;-67
2024/01/02 00:49:36;;;;;;;6.72;4.00;;;;;;;-10.50;55.33;95718.63;6269183;28;20045;-67
2024/01/02 00:52:42;;;;;;;4.97;3.28;;;;;;;-10.75;56.36;95725.47;6263226;28;20045;-67
2024/01/02 00:55:44;;;;;;;10.70;3.65;;;;;;;-10.75;56.38;95743.25;6244984;28;20057;-67
2024/01/02 00:58:50;;;;;;;5.55;3.10;;;;;;;-10.86;56.27;95744.09;6244284;28;20072;-66
2024/01/02 01:01:51;;;;;;;9.00;4.03;;;;;;;-10.86;56.24;95758.50;6244013;28;20041;-67
2024/01/02 01:04:55;;;;;;;8.52;3.55;;;;;;;-10.97;55.89;95755.09;6243918;28;20465;-67
2024/01/02 01:07:59;;;;;;;7.40;3.67;;;;;;;-11.09;56.08;95763.56;6227486;28;20110;-66
2024/01/02 01:11:00;;;;;;;5.43;3.55;;;;;;;-11.11;56.10;95771.19;6243632;28;20042;-68
2024/01/02 01:14:04;;;;;;;5.43;3.25;;;;;;;-11.28;56.23;95777.09;6244297;28;20132;-67
2024/01/02 01:17:06;;;;;;;8.25;3.78;;;;;;;-11.37;56.25;95783.84;6243943;28;20053;-67
2024/01/02 01:20:10;;;;;;;9.80;4.03;;;;;;;-11.36;55.65;95785.50;6227513;28;20041;-67
2024/01/02 01:23:11;;;;;;;6.57;4.00;;;;;;;-11.48;55.92;95785.50;6243508;28;20041;-67
2024/01/02 01:26:13;;;;;;;6.57;2.97;;;;;;;-11.40;55.17;95793.13;6243782;28;20045;-67
2024/01/02 01:29:14;;;;;;;5.25;2.70;;;;;;;-11.49;54.93;95799.03;6243495;28;20051;-68
2024/01/02 01:32:18;;;;;;;2.72;2.25;;;;;;;-11.62;55.38;95817.59;6243638;28;20049;-68
2024/01/02 01:35:19;;;;;;;4.40;2.67;;;;;;;-11.89;55.90;95824.25;6243604;28;20053;-67
2024/01/02 01:38:23;;;;;;;3.95;2.88;;;;;;;-11.90;55.73;95816.66;6243675;28;20049;-68
2024/01/02 01:41:27;;;;;;;7.22;3.33;;;;;;;-12.02;56.45;95817.44;6243813;28;20433;-66
2024/01/02 01:44:31;;;;;;;4.97;2.90;;;;;;;-12.10;56.67;95798.78;6227009;28;20045;-67
2024/01/02 01:47:32;;;;;;;5.57;3.30;;;;;;;-12.02;56.79;95802.22;6243561;28;20042;-67
2024/01/02 01:50:40;;;;;;;4.90;2.80;;;;;;;-11.89;56.05;95818.34;6243315;28;20056;-67
2024/01/02 01:53:44;;;;;;;5.15;3.58;;;;;;;-11.86;55.39;95824.28;6243368;28;20057;-68
2024/01/02 01:56:51;;;;;;;6.28;3.38;;;;;;;-11.94;55.94;95838.63;6244053;28;20038;-68
2024/01/02 01:59:55;;;;;;;5.68;3.50;;;;;;;-12.14;56.48;95848.66;6243454;28;20140;-67
2024/01/02 02:02:59;;;;;;;4.88;2.90;;;;;;;-12.21;56.46;95845.22;6243154;28;20100;-67
2024/01/02 02:06:01;;;;;;;6.47;3.55;;;;;;;-12.12;56.59;95841.03;6243684;28;20034;-67
2024/01/02 02:09:05;;;;;;;4.85;3.00;;;;;;;-12.05;56.53;95863.06;6225688;28;20060;-66
2024/01/02 02:12:07;;;;;;;;;;;;;;;-11.92;56.91;95885.13;6243144;28;20061;-67
2024/01/02 02:15:11;;;;;;;7.88;3.72;;;;;;;-11.95;56.51;95874.94;6230247;28;20310;-68
2024/01/02 02:18:17;;;;;;;4.40;3.20;;;;;;;-12.04;56.79;95877.44;6248810;28;20495;-67
2024/01/02 02:21:19;;;;;;;7.05;3.85;;;;;;;-12.13;57.18;95885.84;6247832;28;20053;-67
2024/01/02 02:24:26;;;;;;;7.63;4.57;;;;;;;-12.07;57.27;95890.94;6248557;28;20045;-66
2024/01/02 02:27:28;;;;;;;8.40;3.92;;;;;;;-12.03;57.45;95896.88;6247360;28;20439;-67
2024/01/02 02:30:35;;;;;;;6.18;3.97;;;;;;;-12.13;57.47;95910.34;6248294;28;20037;-68
2024/01/02 02:33:36;;;;;;;7.88;3.75;;;;;;;-12.10;57.65;95917.97;6247500;28;20053;-68
2024/01/02 02:36:37;;;;;;;7.03;3.17;;;;;;;-12.13;58.23;95938.25;6247708;28;20517;-67
2024/01/02 02:39:39;;;;;;;4.88;2.60;;;;;;;-12.08;58.00;95947.59;6247658;28;20050;-67
2024/01/02 02:42:40;;;;;;;3.63;2.33;;;;;;;-12.06;58.04;95950.97;6247194;28;20060;-67
2024/01/02 02:45:44;;;;;;;4.70;2.47;;;;;;;-11.99;57.49;95945.09;6247400;28;20140;-67
2024/01/02 02:48:48;;;;;;;;;;;;;;;-11.81;57.41;95944.34;6247915;28;20179;-66
2024/01/02 02:51:51;;;;;;;8.18;3.95;;;;;;;-11.80;56.63;95956.22;6247797;28;19921;-66
2024/01/02 02:54:53;;;;;;;6.90;4.65;;;;;;;-11.83;56.16;95955.31;6246883;28;20064;-67
2024/01/02 02:57:58;;;;;;;8.30;3.78;;;;;;;-11.83;56.12;95966.34;6247006;28;20147;-66
2024/01/02 03:00:59;;;;;;;5.47;3.28;;;;;;;-11.94;56.44;95975.59;6246790;28;20091;-67
2024/01/02 03:04:00;;;;;;;7.43;5.05;;;;;;;-11.92;56.11;95967.97;6229721;28;20093;-68
2024/01/02 03:07:02;;;;;;;5.88;3.45;;;;;;;-12.04;56.34;95973.81;6229012;28;20053;-66
2024/01/02 03:10:07;;;;;;;8.68;4.13;;;;;;;-12.11;56.52;95967.84;6247364;28;20411;-67
2024/01/02 03:13:10;;;;;;;7.60;4.22;;;;;;;-12.18;56.53;95957.63;6247179;28;20486;-68
2024/01/02 03:16:16;;;;;;;;;;;;;;;-12.24;56.85;95969.41;6247928;28;20045;-67
2024/01/02 03:19:20;;;;;;;6.22;3.72;;;;;;;-12.39;57.48;95971.81;6247012;28;19932;-67
2024/01/02 03:22:24;;;;;;;7.95;4.50;;;;;;;-12.66;57.61;95952.97;6246588;28;20449;-68
2024/01/02 03:25:25;;;;;;;5.78;4.30;;;;;;;-12.45;58.03;96004.72;6246186;28;20041;-68
2024/01/02 03:28:31;;;;;;;8.40;4.25;;;;;;;-12.51;57.70;96014.78;6246427;28;20068;-68
2024/01/02 03:31:35;;;;;;;11.00;4.35;;;;;;;-12.57;58.14;96034.97;6246183;28;20045;-67
2024/01/02 03:34:40;;;;;;;10.85;4.68;;;;;;;-12.57;58.57;96047.66;6229474;28;20045;-68
2024/01/02 03:37:45;;;;;;;7.72;4.15;;;;;;;-12.58;58.44;96056.94;6246813;28;20136;-67
2024/01/02 03:40:50;;;;;;;5.53;3.88;;;;;;;-12.62;58.81;96061.94;6246264;28;20367;-66
2024/01/02 03:43:51;;;;;;;6.78;4.05;;;;;;;-12.69;58.78;96054.28;6246325;28;20037;-68
2024/01/02 03:46:57;;;;;;;4.60;3.17;;;;;;;-12.63;58.72;96067.84;6246298;28;20414;-67
2024/01/02 03:50:02;;;;;;;5.80;3.53;;;;;;;-12.70;58.80;96055.13;6246356;28;20045;-67
2024/01/02 03:53:05;;;;;;;8.20;3.65;;;;;;;-12.61;58.72;96068.72;6245169;28;20049;-68
2024/01/02 03:56:06;;;;;;;6.20;3.25;;;;;;;-12.54;58.84;96076.44;6246076;28;20053;-67
2024/01/02 03:59:08;;;;;;;5.15;3.35;;;;;;;-12.38;58.54;96087.56;6246123;28;20381;-67
2024/01/02 04:02:12;;;;;;;3.78;2.95;;;;;;;-12.37;58.27;96089.28;6246251;28;20065;-67
2024/01/02 04:05:15;;;;;;;;;;;;;;;-12.34;58.51;96099.47;6246416;28;20187;-67
2024/01/02 04:08:21;;;;;;;6.18;3.65;;;;;;;-12.33;57.95;96085.94;6228864;28;20231;-68
2024/01/02 04:11:27;;;;;;;6.28;3.45;;;;;;;-12.46;58.05;96096.78;6245727;28;20458;-68
2024/01/02 04:14:29;;;;;;;8.32;3.90;;;;;;;-12.47;58.31;96112.81;6244746;28;20503;-67
2024/01/02 04:17:30;;;;;;;5.57;3.25;;;;;;;-12.53;58.31;96116.13;6245755;28;20049;-66
2024/01/02 04:20:38;;;;;;;5.80;3.13;;;;;;;-12.74;57.80;96108.25;6245857;28;20045;-68
2024/01/02 04:23:47;;;;;;;5.75;3.60;;;;;;;-12.66;57.73;96117.66;6245479;28;20037;-68
2024/01/02 04:26:53;;;;;;;6.15;3.90;;;;;;;-12.87;58.08;96140.19;6245605;28;20045;-68
2024/01/02 04:30:02;;;;;;;6.53;3.53;;;;;;;-12.93;58.66;96147.69;6244473;28;20045;-67
2024/01/02 04:33:11;;;;;;;4.45;3.30;;;;;;;-12.98;58.78;96129.06;6245400;28;20049;-67
2024/01/02 04:36:12;;;;;;;4.05;3.13;;;;;;;-12.96;58.85;96150.19;6244753;28;20076;-67
2024/01/02 04:39:14;;;;;;;5.68;3.28;;;;;;;-12.90;58.67;96157.88;6245252;28;20038;-68
2024/01/02 04:42:18;;;;;;;5.97;3.65;;;;;;;-12.84;59.30;96163.03;6245013;28;20033;-67
2024/01/02 04:45:26;;;;;;;6.57;3.55;;;;;;;-12.81;59.55;96178.25;6245161;28;20060;-66
2024/01/02 04:48:30;;;;;;;7.50;3.67;;;;;;;-12.56;58.92;96176.91;6244928;28;20049;-66
2024/01/02 04:51:34;;;;;;;6.93;3.30;;;;;;;-12.46;57.83;96195.63;6245044;28;20057;-68
2024/01/02 04:54:38;;;;;;;6.57;3.20;;;;;;;-12.46;58.43;96188.03;6244516;28;20423;-67
2024/01/02 04:57:45;;;;;;;4.25;2.83;;;;;;;-12.40;58.32;96194.84;6227497;28;20045;-67
2024/01/02 05:00:48;;;;;;;5.57;2.67;;;;;;;-12.12;57.77;96206.19;6244639;28;20068;-67
2024/01/02 05:03:50;;;;;;;3.67;2.60;;;;;;;-12.02;57.58;96187.72;6243998;28;20049;-68
2024/01/02 05:06:51;;;;;;;4.22;3.08;;;;;;;-12.10;57.50;96190.16;6243766;28;20048;-67
2024/01/02 05:09:55;;;;;;;;;;;;;;;-12.06;57.32;96191.03;6244988;28;20042;-66
2024/01/02 05:13:01;;;;;;;5.57;3.65;;;;;;;-12.08;57.25;96201.19;6226672;28;19921;-67
2024/01/02 05:16:03;;;;;;;6.43;3.25;;;;;;;-12.17;58.00;96235.72;6226667;28;20049;-67
2024/01/02 05:19:07;;;;;;;6.22;3.58;;;;;;;-12.21;57.93;96247.50;6243502;28;20053;-68
2024/01/02 05:22:11;;;;;;;6.32;4.00;;;;;;;-12.21;58.06;96255.97;6244110;28;20431;-67
2024/01/02 05:25:13;;;;;;;4.80;3.45;;;;;;;-12.14;58.31;96259.44;6243654;28;20388;-67
2024/01/02 05:28:14;;;;;;;9.07;3.92;;;;;;;-11.96;58.21;96258.81;6243500;28;20057;-67
2024/01/02 05:31:15;;;;;;;5.95;3.90;;;;;;;-11.92;58.08;96262.25;6243431;28;20507;-68
2024/01/02 05:34:19;;;;;;;5.78;4.07;;;;;;;-11.90;58.13;96258.91;6243808;28;20427;-67
2024/01/02 05:37:23;;;;;;;10.70;4.60;;;;;;;-11.79;58.42;96280.13;6244041;28;20069;-67
2024/01/02 05:40:24;;;;;;;6.18;4.22;;;;;;;-11.70;58.45;96281.09;6243424;28;20057;-67
2024/01/02 05:43:26;;;;;;;5.35;3.35;;;;;;;-11.63;58.28;96298.06;6243639;28;20056;-68
2024/01/02 05:46:29;;;;;;;7.68;3.10;;;;;;;-11.58;58.15;96302.38;6243770;28;20045;-67
2024/01/02 05:49:31;;;;;;;9.40;5.30;;;;;;;-11.52;58.34;96299.06;6246466;28;20053;-67
2024/01/02 05:52:32;;;;;;;5.80;3.85;;;;;;;-11.46;57.71;96301.69;6248043;28;20049;-67
2024/01/02 05:55:37;;;;;;;12.43;6.60;;;;;;;-11.30;57.84;96326.38;6248494;28;20064;-67
2024/01/02 05:58:41;;;;;;;9.13;4.90;;;;;;;-11.19;57.88;96328.22;6248969;28;20041;-68
2024/01/02 06:01:44;;;;;;;13.50;6.05;;;;;;;-11.17;57.67;96341.78;6248765;28;20041;-68
2024/01/02 06:04:45;;;;;;;5.75;3.10;;;;;;;-10.99;56.13;96336.88;6248169;28;20426;-68
2024/01/02 06:07:47;;;;;;;6.63;2.95;;;;;;;-11.03;55.78;96341.94;6214339;28;20049;-68
2024/01/02 06:10:56;;;;;;;5.60;2.97;;;;;;;-11.14;56.19;96335.03;6248321;28;20045;-69
2024/01/02 06:13:58;;;;;;;5.15;2.88;;;;;;;-11.09;56.29;96337.66;6230456;28;20049;-67
2024/01/02 06:17:03;;;;;;;5.47;3.67;;;;;;;-10.97;55.30;96350.47;6247957;28;20136;-67
2024/01/02 06:20:05;;;;;;;7.63;4.18;;;;;;;-11.08;55.76;96359.66;6247777;28;20045;-68
2024/01/02 06:23:09;;;;;;;8.50;4.90;;;;;;;-10.97;56.07;96373.31;6248252;28;20510;-66
2024/01/02 06:26:14;;;;;;;5.93;3.70;;;;;;;-10.77;55.83;96378.63;6247895;28;20053;-67
2024/01/02 06:29:16;;;;;;;8.88;3.85;;;;;;;-10.63;54.17;96383.84;6246867;28;20052;-67
2024/01/02 06:32:17;;;;;;;6.18;2.92;;;;;;;-10.75;54.14;96388.81;6247308;28;20049;-67
2024/01/02 06:35:19;;;;;;;5.30;3.25;;;;;;;-10.79;54.53;96402.31;6248266;28;20050;-67
2024/01/02 06:38:23;;;;;;;6.75;3.40;;;;;;;-10.74;53.88;96395.59;6248285;28;20052;-67
2024/01/02 06:41:25;;;;;;;4.43;2.35;;;;;;;-10.79;54.19;96407.38;6247686;28;20056;-66
2024/01/02 06:44:34;;;;;;;6.53;3.28;;;;;;;-10.80;54.29;96415.88;6247899;28;20037;-67
2024/01/02 06:47:39;;;;;;;6.78;3.40;;;;;;;-11.02;54.40;96374.97;6247913;28;20041;-67
2024/01/02 06:50:43;;;;;;;8.63;3.67;;;;;;;-10.75;54.12;96398.97;6230572;28;20474;-67
2024/01/02 06:53:49;;;;;;;7.05;3.17;;;;;;;-10.83;53.84;96380.25;6262461;28;20053;-67
2024/01/02 06:56:56;;;;;;;7.55;3.53;;;;;;;-10.74;52.89;96403.22;6272551;28;20057;-67
2024/01/02 06:59:58;;;;;;;5.03;3.40;;;;;;;-10.71;51.87;96409.16;6271314;28;20049;-68
2024/01/02 07:03:09;;;;;;;5.65;3.90;;;;;;;-10.98;53.12;96419.03;6272317;28;20041;-68
2024/01/02 07:06:11;;;;;;;6.65;4.25;;;;;;;-10.83;52.48;96431.09;6253598;28;20049;-68
2024/01/02 07:09:15;;;;;;;5.78;3.72;;;;;;;-11.00;53.01;96421.56;6272084;28;20041;-68
2024/01/02 07:12:20;;;;;;;;;;;;;;;-10.86;53.03;96437.81;6272676;28;20037;-67
2024/01/02 07:15:21;;;;;;;6.28;3.70;;;;;;;-10.75;52.49;96452.34;6272012;28;20572;-67
2024/01/02 07:18:22;;;;;;;8.90;4.05;;;;;;;-10.82;53.02;96442.94;6271818;28;20040;-69
2024/01/02 07:21:27;;;;;;;5.88;3.35;;;;;;;-10.65;52.94;96462.63;6272063;28;20506;-67
2024/01/02 07:24:31;;;;;;;5.32;3.35;;;;;;;-9.57;52.83;96464.38;6271043;28;20183;-68
2024/01/02 07:27:37;;;;;;;6.80;3.28;;;;;;;-4.80;45.43;96413.69;6271082;28;20053;-66
2024/01/02 07:30:39;;;;;;;5.28;3.00;;;;;;;0.23;38.57;96475.22;6271635;28;20033;-67
2024/01/02 07:33:42;;;;;;;5.20;2.65;;;;;;;2.99;34.01;96480.91;6270385;28;20130;-67
2024/01/02 07:36:50;;;;;;;6.28;2.65;;;;;;;5.12;30.49;96486.06;6271419;28;20068;-68
2024/01/02 07:39:53;;;;;;;3.80;2.25;;;;;;;6.25;28.68;96498.53;6271030;28;20045;-68
2024/01/02 07:42:58;;;;;;;3.70;2.67;;;;;;;7.48;28.17;96499.53;6271116;28;20414;-67
2024/01/02 07:46:03;;;;;;;3.55;2.30;;;;;;;9.41;26.86;96500.63;6271138;28;20045;-68
2024/01/02 07:49:11;;;;;;;5.07;2.92;;;;;;;10.03;24.31;96504.38;6271358;28;20045;-68
2024/01/02 07:52:18;;;;;;;5.28;2.67;;;;;;;11.21;24.43;96512.69;6268039;28;20036;-68
2024/01/02 07:55:21;;;;;;;6.97;2.95;;;;;;;12.26;23.39;96510.97;6245362;28;20170;-68
2024/01/02 07:58:25;;;;;;;3.60;2.45;;;;;;;12.04;21.73;96527.63;6245670;28;20045;-68
2024/01/02 08:01:31;;;;;;;2.97;2.50;;;;;;;11.73;20.48;96520.31;6246297;28;20124;-68
2024/01/02 08:04:35;;;;;;;2.90;2.53;;;;;;;11.70;20.37;96529.28;6246487;28;20045;-68
2024/01/02 08:07:39;;;;;;;4.03;2.78;;;;;;;12.62;20.40;96527.53;6245376;28;20617;-67
2024/01/02 08:10:42;;;;;;;5.20;2.85;;;;;;;13.38;19.72;96530.31;6245185;28;20395;-69
2024/01/02 08:13:51;;;;;;;4.82;2.97;;;;;;;13.26;19.21;96534.81;6246000;28;20045;-67
2024/01/02 08:16:54;;;;;;;4.22;2.67;;;;;;;13.10;18.72;96531.69;6245733;28;20050;-68
2024/01/02 08:19:59;;;;;;;5.30;3.00;;;;;;;13.39;19.03;96522.28;6245873;28;20188;-65
2024/01/02 08:23:03;;;;;;;3.97;2.85;;;;;;;13.17;18.30;96517.84;6245267;28;20041;-69
2024/01/02 08:26:15;;;;;;;5.32;2.97;;;;;;;13.60;18.46;96518.81;6244752;28;20081;-67
2024/01/02 08:29:19;;;;;;;5.32;3.05;;;;;;;13.44;17.60;96517.44;6245447;28;20517;-67
2024/01/02 08:32:23;;;;;;;4.10;2.78;;;;;;;13.33;17.11;96512.19;6244984;28;20057;-68
2024/01/02 08:35:27;;;;;;;3.90;2.88;;;;;;;12.81;17.09;96524.28;6245249;28;20038;-68
2024/01/02 08:38:31;;;;;;;4.38;2.85;;;;;;;13.01;17.36;96538.53;6244609;28;20426;-68
2024/01/02 08:41:37;;;;;;;6.15;3.67;;;;;;;12.87;17.10;96523.78;6245065;28;20037;-68
2024/01/02 08:44:40;;;;;;;5.80;3.53;;;;;;;12.28;17.37;96529.31;6245131;28;20048;-68
2024/01/02 08:47:43;;;;;;;5.10;3.55;;;;;;;12.29;16.87;96541.56;6245052;28;20038;-69
2024/01/02 08:50:45;;;;;;;6.63;3.40;;;;;;;12.21;16.60;96547.44;6244193;28;20049;-68
2024/01/02 08:53:48;;;;;;;4.70;3.45;;;;;;;12.18;17.23;96538.91;6259407;28;20406;-69
2024/01/02 08:56:50;;;;;;;5.75;4.10;;;;;;;11.18;17.08;96533.97;6268890;28;20056;-67
2024/01/02 08:59:56;;;;;;;6.13;3.45;;;;;;;10.89;17.60;96543.13;6269624;28;20040;-67
2024/01/02 09:03:02;;;;;;;5.05;3.40;;;;;;;10.90;17.60;96539.53;6269377;28;20049;-67
2024/01/02 09:06:04;;;;;;;4.90;3.78;;;;;;;10.59;17.89;96552.25;6268694;28;20568;-68
2024/01/02 09:09:08;;;;;;;5.00;3.47;;;;;;;10.92;17.79;96546.38;6269401;28;20538;-68
2024/01/02 09:12:10;;;;;;;6.45;4.30;;;;;;;10.75;17.73;96558.09;6269407;28;20044;-67
2024/01/02 09:15:15;;;;;;;6.18;3.80;;;;;;;11.13;17.76;96551.91;6269330;28;20045;-68
2024/01/02 09:18:23;;;;;;;6.15;4.28;;;;;;;11.60;17.44;96555.47;6269081;28;20201;-68
2024/01/02 09:21:24;;;;;;;;;;;;;;;11.73;17.16;96554.59;6268984;28;20037;-68
2024/01/02 09:24:26;;;;;;;5.68;3.75;;;;;;;11.02;17.54;96555.31;6268473;28;19927;-69
2024/01/02 09:27:34;;;;;;;5.22;3.95;;;;;;;10.90;17.17;96581.66;6268257;28;20546;-68
2024/01/02 09:30:38;;;;;;;6.10;3.75;;;;;;;10.59;17.18;96568.03;6268481;28;20037;-69
2024/01/02 09:33:43;;;;;;;7.30;4.25;;;;;;;10.23;17.62;96582.72;6268273;28;20075;-68
2024/01/02 09:36:46;;;;;;;6.03;4.47;;;;;;;9.96;17.40;96584.59;6268307;28;20045;-67
2024/01/02 09:39:53;;;;;;;6.50;4.50;;;;;;;9.28;17.79;96598.66;6268682;28;20418;-66
2024/01/02 09:43:10;;;;;;;7.05;4.10;;;;;;;7.85;18.31;96589.84;6251494;28;20048;-67
2024/01/02 09:46:29;;;;;;;7.80;4.65;;;;;;;6.87;19.44;96595.41;6251078;28;20037;-67
2024/01/02 09:49:53;;;;;;;7.05;3.88;;;;;;;6.85;19.16;96609.47;6251379;28;20041;-68
2024/01/02 09:53:17;;;;;;;7.35;3.85;;;;;;;6.93;19.24;96605.50;6241853;28;20431;-67
2024/01/02 09:56:26;;;;;;;;;;;;;;;7.69;19.10;96607.38;6243365;28;20576;-67
2024/01/02 09:59:46;;;;;;;6.60;3.78;;;;;;;7.27;19.26;96597.59;6226184;28;19921;-68
2024/01/02 10:03:25;;;;;;;7.75;3.97;;;;;;;7.76;18.83;96603.50;6243738;28;20048;-67
2024/01/02 10:06:44;;;;;;;6.80;3.92;;;;;;;7.38;19.28;96621.38;6204367;28;20049;-67
2024/01/02 10:10:17;;;;;;;6.47;4.07;;;;;;;6.12;19.48;96628.13;6243442;28;20050;-67
2024/01/02 10:13:35;;;;;;;5.18;3.55;;;;;;;5.40;20.64;96624.66;6231997;28;20049;-69
2024/01/02 10:16:57;;;;;;;5.82;4.15;;;;;;;2.02;23.14;96608.41;6243567;28;20038;-68
2024/01/02 10:20:19;;;;;;;5.43;3.53;;;;;;;-1.07;26.43;96616.56;6225278;28;20144;-69
2024/01/02 10:24:01;;;;;;;7.40;3.80;;;;;;;-3.56;29.95;96630.50;6233830;28;20128;-69
2024/01/02 10:27:05;;;;;;;7.55;3.97;;;;;;;-4.88;31.84;96641.34;6243622;28;21034;-69
2024/01/02 10:30:11;;;;;;;8.85;5.30;;;;;;;-5.63;32.80;96637.56;6242919;28;20400;-68
2024/01/02 10:33:24;;;;;;;8.05;4.65;;;;;;;-6.33;33.63;96624.19;6243364;28;20045;-67
2024/01/02 10:36:31;;;;;;;5.68;3.60;;;;;;;-6.66;34.91;96637.06;6247411;28;20080;-67
2024/01/02 10:39:43;;;;;;;4.70;3.25;;;;;;;-6.95;35.49;96650.72;6247129;28;20049;-69
2024/01/02 10:42:59;;;;;;;9.90;5.07;;;;;;;-7.59;36.00;96665.97;6247935;28;20041;-68
2024/01/02 10:46:32;;;;;;;8.50;4.45;;;;;;;-7.84;36.52;96648.03;6246876;28;20114;-66
2024/01/02 10:49:43;;;;;;;8.75;4.72;;;;;;;-7.99;37.82;96655.63;6246785;28;20050;-67
2024/01/02 10:53:11;;;;;;;5.75;3.85;;;;;;;-8.53;38.27;96646.88;6247672;28;20124;-70
2024/01/02 10:56:30;;;;;;;8.52;5.25;;;;;;;-8.68;38.84;96653.59;6247743;28;20376;-67
2024/01/02 11:00:12;;;;;;;8.63;4.70;;;;;;;-8.99;39.85;96667.81;6247076;28;20049;-67
2024/01/02 11:03:25;;;;;;;8.10;5.20;;;;;;;-9.12;40.32;96666.00;6242774;28;20049;-67
2024/01/02 11:06:41;;;;;;;8.82;5.38;;;;;;;-9.46;40.92;96659.75;6247394;28;20041;-67
2024/01/02 11:10:03;;;;;;;7.22;4.47;;;;;;;-9.59;41.17;96659.63;6246936;28;20042;-67
2024/01/02 11:13:12;;;;;;;10.25;4.50;;;;;;;-9.72;41.31;96678.16;6247451;28;20049;-68
2024/01/02 11:16:17;;;;;;;10.38;5.47;;;;;;;-9.83;41.46;96677.19;6246635;28;20055;-67
2024/01/02 11:19:35;;;;;;;7.57;5.20;;;;;;;-10.02;41.50;96689.72;6247229;28;20041;-68
2024/01/02 11:23:02;;;;;;;5.43;2.70;;;;;;;-10.10;41.96;96686.22;6246905;28;20570;-69
2024/01/02 11:26:25;;;;;;;7.32;3.92;;;;;;;-10.20;42.59;96684.38;6229770;28;20514;-68
2024/01/02 11:29:33;;;;;;;4.75;3.03;;;;;;;-10.35;42.80;96676.59;6246240;28;20053;-68
2024/01/02 11:32:42;;;;;;;8.95;4.97;;;;;;;-10.45;43.55;96689.16;6245942;28;20057;-68
2024/01/02 11:36:01;;;;;;;7.93;3.92;;;;;;;-10.49;43.88;96682.34;6229670;28;20048;-67
2024/01/02 11:39:16;;;;;;;8.25;4.07;;;;;;;-10.66;44.11;96689.72;6246521;28;20048;-67
2024/01/02 11:42:46;;;;;;;5.85;2.42;;;;;;;-10.56;44.26;96689.84;6246518;28;20046;-68
2024/01/02 11:45:57;;;;;;;3.45;2.83;;;;;;;-10.39;44.86;96696.03;6245134;28;20049;-69
2024/01/02 11:49:10;;;;;;;7.65;4.38;;;;;;;-10.34;44.93;96681.69;6245533;28;20046;-67
2024/01/02 11:52:17;;;;;;;5.28;3.25;;;;;;;-10.53;45.43;96690.78;6247786;28;20049;-67
2024/01/02 11:55:50;;;;;;;6.38;4.63;;;;;;;-10.59;46.08;96694.91;6270430;28;20049;-67
2024/01/02 11:59:03;;;;;;;4.78;3.20;;;;;;;-10.79;45.97;96703.06;6267860;28;20524;-68
2024/01/02 12:02:40;;;;;;;6.75;4.47;;;;;;;-10.85;46.37;96702.97;6270995;28;20053;-67
2024/01/02 12:05:50;;;;;;;5.45;3.25;;;;;;;-10.88;46.50;96719.03;6270762;28;20037;-67
2024/01/02 12:09:04;;;;;;;4.43;3.67;;;;;;;-10.82;46.76;96727.59;6270185;28;20052;-68
2024/01/02 12:12:18;;;;;;;7.32;4.68;;;;;;;-10.91;47.15;96746.94;6270929;28;20048;-67
2024/01/02 12:15:44;;;;;;;6.68;3.65;;;;;;;-10.94;47.33;96764.69;6269963;28;20179;-69
2024/01/02 12:18:49;;;;;;;6.60;3.65;;;;;;;-11.03;47.50;96753.53;6269806;28;20057;-67
2024/01/02 12:21:58;;;;;;;6.43;3.35;;;;;;;-10.99;47.96;96756.13;6269501;28;20134;-68
2024/01/02 12:25:05;;;;;;;6.43;3.90;;;;;;;-11.02;48.42;96753.53;6270100;28;20139;-68
2024/01/02 12:28:07;;;;;;;7.63;3.65;;;;;;;-11.09;48.38;96759.34;6269370;28;20053;-68
2024/01/02 12:31:17;;;;;;;7.13;4.68;;;;;;;-11.23;48.77;96750.63;6270195;28;20498;-67
2024/01/02 12:34:46;;;;;;;8.13;4.15;;;;;;;-11.27;48.57;96731.06;6270477;28;20045;-68
2024/01/02 12:38:12;;;;;;;10.15;4.97;;;;;;;-11.33;48.81;96734.38;6269786;28;20052;-67
2024/01/02 12:41:51;;;;;;;8.70;5.63;;;;;;;-11.23;48.69;96748.09;6269509;28;20041;-67
2024/01/02 12:44:59;;;;;;;9.38;5.00;;;;;;;-11.46;48.65;96788.28;6268526;28;20063;-66
2024/01/02 12:48:08;;;;;;;2.67;2.30;;;;;;;-11.27;49.13;96781.88;6251771;28;20052;-68
2024/01/02 12:51:16;;;;;;;5.15;2.97;;;;;;;-11.36;49.54;96775.78;6270277;28;20131;-67
2024/01/02 12:54:19;;;;;;;3.42;2.97;;;;;;;-11.37;49.16;96784.25;6231915;28;20057;-68
2024/01/02 12:57:23;;;;;;;9.63;4.75;;;;;;;-11.70;49.28;96768.38;6243745;28;20053;-68
2024/01/02 13:00:25;;;;;;;7.43;2.90;;;;;;;-11.28;49.33;96787.78;6244309;28;20095;-68
2024/01/02 13:03:30;;;;;;;5.40;3.15;;;;;;;-11.30;49.50;96791.13;6226254;28;20049;-69
2024/01/02 13:06:36;;;;;;;6.13;3.65;;;;;;;-11.39;49.38;96785.88;6244744;28;20132;-68
2024/01/02 13:09:42;;;;;;;8.13;3.95;;;;;;;-11.45;49.48;96779.84;6244572;28;20045;-67
2024/01/02 13:12:47;;;;;;;9.48;4.63;;;;;;;-11.45;49.66;96784.94;6243590;28;20049;-67
2024/01/02 13:15:57;;;;;;;6.72;3.28;;;;;;;-11.39;49.60;96796.06;6244081;28;20092;-67
2024/01/02 13:18:58;;;;;;;10.38;4.28;;;;;;;-11.45;49.52;96790.84;6243693;28;20045;-67
2024/01/02 13:22:00;;;;;;;4.32;3.25;;;;;;;-11.31;49.40;96793.66;6243688;28;20427;-68
2024/01/02 13:25:17;;;;;;;11.65;5.53;;;;;;;-11.31;49.13;96776.75;6243713;28;20061;-67
2024/01/02 13:28:25;;;;;;;7.53;3.15;;;;;;;-10.95;48.86;96783.31;6244506;28;20124;-67
2024/01/02 13:31:31;;;;;;;4.13;2.67;;;;;;;-11.10;48.92;96788.09;6243290;28;20045;-68
2024/01/02 13:34:35;;;;;;;4.95;3.22;;;;;;;-11.17;49.29;96791.38;6244285;28;20648;-67
2024/01/02 13:37:37;;;;;;;;;;;;;;;-11.19;49.56;96798.13;6243867;28;20052;-66
2024/01/02 13:40:42;;;;;;;6.68;3.33;;;;;;;-11.37;49.80;96809.63;6244265;28;20015;-68
2024/01/02 13:43:44;;;;;;;7.45;3.20;;;;;;;-11.42;49.83;96816.31;6242367;28;20053;-67
2024/01/02 13:46:48;;;;;;;4.93;2.00;;;;;;;-11.29;49.62;96817.41;6244108;28;20045;-67
2024/01/02 13:49:56;;;;;;;4.97;3.30;;;;;;;-11.38;49.90;96813.03;6243771;28;20037;-67
2024/01/02 13:53:05;;;;;;;7.47;3.40;;;;;;;-11.30;49.91;96811.47;6252783;28;20041;-67
2024/01/02 13:56:06;;;;;;;10.65;5.22;;;;;;;-11.26;49.88;96821.66;6268577;28;20063;-67
2024/01/02 13:59:12;;;;;;;7.80;3.70;;;;;;;-11.38;50.30;96818.09;6268500;28;20128;-67
2024/01/02 14:02:19;;;;;;;7.00;3.88;;;;;;;-11.35;49.98;96823.22;6267903;28;20403;-68
2024/01/02 14:05:24;;;;;;;7.80;4.68;;;;;;;-11.38;50.16;96807.94;6268477;28;20088;-68
2024/01/02 14:08:30;;;;;;;7.22;4.22;;;;;;;-11.42;50.13;96813.78;6267568;28;20049;-66
2024/01/02 14:11:32;;;;;;;9.85;3.90;;;;;;;-11.35;49.99;96825.78;6272273;28;20049;-66
2024/01/02 14:14:48;;;;;;;9.07;4.70;;;;;;;-11.23;50.14;96821.75;6273182;28;20186;-67
2024/01/02 14:17:57;;;;;;;6.85;3.72;;;;;;;-11.22;49.69;96821.78;6272846;28;20052;-67
2024/01/02 14:21:12;;;;;;;7.40;3.92;;;;;;;-11.22;49.82;96820.91;6272420;28;20049;-67
2024/01/02 14:24:23;;;;;;;6.88;3.67;;;;;;;-11.23;50.24;96820.06;6272388;28;20126;-68
2024/01/02 14:27:41;;;;;;;7.38;3.97;;;;;;;-11.41;49.94;96792.63;6272046;28;20418;-67
2024/01/02 14:30:53;;;;;;;7.00;3.78;;;;;;;-11.25;49.83;96818.31;6272217;28;20045;-68
2024/01/02 14:34:09;;;;;;;6.38;3.15;;;;;;;-11.24;50.25;96825.94;6271959;28;20053;-67